createdAt,value
2022-08-21T00:00:01.717Z,995.70
2022-08-21T00:01:01.712Z,995.68
2022-08-21T00:02:01.820Z,995.69
2022-08-21T00:03:01.664Z,995.69
2022-08-21T00:04:01.638Z,995.66
2022-08-21T00:05:01.619Z,995.65
2022-08-21T00:06:01.621Z,995.63
2022-08-21T00:07:01.570Z,995.64
2022-08-21T00:08:01.566Z,995.61
2022-08-21T00:09:06.080Z,995.62
2022-08-21T00:10:01.597Z,995.62
2022-08-21T00:11:01.487Z,995.62
2022-08-21T00:12:01.470Z,995.60
2022-08-21T00:13:01.455Z,995.63
2022-08-21T00:14:01.553Z,995.59
2022-08-21T00:15:09.033Z,995.54
2022-08-21T00:16:02.311Z,995.59
2022-08-21T00:18:41.968Z,995.58
2022-08-21T00:19:41.929Z,995.54
2022-08-21T00:20:41.909Z,995.55
2022-08-21T00:21:44.492Z,995.51
2022-08-21T00:22:41.873Z,995.55
2022-08-21T00:23:41.849Z,995.55
2022-08-21T00:24:41.825Z,995.54
2022-08-21T00:25:48.942Z,995.54
2022-08-21T00:27:35.164Z,995.47
2022-08-21T00:28:35.128Z,995.47
2022-08-21T00:29:35.103Z,995.51
2022-08-21T00:30:35.093Z,995.46
2022-08-21T00:31:35.068Z,995.45
2022-08-21T00:32:35.062Z,995.47
2022-08-21T00:33:35.022Z,995.42
2022-08-21T00:34:35.288Z,995.46
2022-08-21T00:35:42.116Z,995.43
2022-08-21T00:37:27.838Z,995.49
2022-08-21T00:38:27.809Z,995.46
2022-08-21T00:39:27.773Z,995.46
2022-08-21T00:40:27.752Z,995.46
2022-08-21T00:41:37.324Z,995.50
2022-08-21T00:42:27.705Z,995.49
2022-08-21T00:43:27.688Z,995.47
2022-08-21T00:44:27.663Z,995.47
2022-08-21T00:45:27.651Z,995.46
2022-08-21T00:46:28.444Z,995.44
2022-08-21T00:47:27.610Z,995.44
2022-08-21T00:48:27.576Z,995.43
2022-08-21T00:49:27.559Z,995.40
2022-08-21T00:50:27.533Z,995.38
2022-08-21T00:51:27.516Z,995.38
2022-08-21T00:52:27.490Z,995.37
2022-08-21T00:53:27.472Z,995.36
2022-08-21T00:54:27.447Z,995.33
2022-08-21T00:55:27.432Z,995.32
2022-08-21T00:56:27.411Z,995.32
2022-08-21T00:57:27.387Z,995.30
2022-08-21T00:58:27.363Z,995.29
2022-08-21T00:59:27.347Z,995.31
2022-08-21T01:00:27.325Z,995.27
2022-08-21T01:01:27.367Z,995.28
2022-08-21T01:02:27.281Z,995.30
2022-08-21T01:03:27.259Z,995.33
2022-08-21T01:04:27.251Z,995.33
2022-08-21T01:05:27.222Z,995.33
2022-08-21T01:06:27.206Z,995.32
2022-08-21T01:07:27.695Z,995.35
2022-08-21T01:08:27.180Z,995.34
2022-08-21T01:09:27.130Z,995.35
2022-08-21T01:10:27.101Z,995.37
2022-08-21T01:11:27.087Z,995.37
2022-08-21T01:12:27.060Z,995.35
2022-08-21T01:13:27.037Z,995.38
2022-08-21T01:14:27.019Z,995.38
2022-08-21T01:15:26.996Z,995.38
2022-08-21T01:16:26.970Z,995.38
2022-08-21T01:17:26.965Z,995.33
2022-08-21T01:18:26.931Z,995.36
2022-08-21T01:19:26.910Z,995.36
2022-08-21T01:20:32.890Z,995.36
2022-08-21T01:21:28.072Z,995.34
2022-08-21T01:22:26.846Z,995.38
2022-08-21T01:23:26.826Z,995.41
2022-08-21T01:24:26.802Z,995.38
2022-08-21T01:25:26.869Z,995.39
2022-08-21T01:26:34.458Z,995.41
2022-08-21T01:27:26.779Z,995.44
2022-08-21T01:28:26.721Z,995.39
2022-08-21T01:29:26.694Z,995.37
2022-08-21T01:30:26.674Z,995.37
2022-08-21T01:31:26.650Z,995.39
2022-08-21T01:32:26.630Z,995.35
2022-08-21T01:33:26.610Z,995.37
2022-08-21T01:34:26.582Z,995.40
2022-08-21T01:35:26.579Z,995.32
2022-08-21T01:36:26.546Z,995.33
2022-08-21T01:37:26.522Z,995.34
2022-08-21T01:38:26.497Z,995.34
2022-08-21T01:39:26.482Z,995.33
2022-08-21T01:40:26.452Z,995.29
2022-08-21T01:41:26.432Z,995.33
2022-08-21T01:42:26.421Z,995.37
2022-08-21T01:43:30.668Z,995.37
2022-08-21T01:44:26.365Z,995.37
2022-08-21T01:45:26.344Z,995.30
2022-08-21T01:46:26.325Z,995.33
2022-08-21T01:47:26.301Z,995.34
2022-08-21T01:48:26.277Z,995.36
2022-08-21T01:49:26.260Z,995.37
2022-08-21T01:50:26.240Z,995.36
2022-08-21T01:51:26.214Z,995.38
2022-08-21T01:52:26.191Z,995.38
2022-08-21T01:53:28.685Z,995.35
2022-08-21T01:54:26.148Z,995.38
2022-08-21T01:55:26.129Z,995.36
2022-08-21T01:56:26.103Z,995.36
2022-08-21T01:57:26.499Z,995.39
2022-08-21T01:58:26.061Z,995.36
2022-08-21T01:59:26.041Z,995.39
2022-08-21T02:00:26.025Z,995.39
2022-08-21T02:01:26.029Z,995.41
2022-08-21T02:02:27.248Z,995.41
2022-08-21T02:03:31.275Z,995.43
2022-08-21T02:04:25.929Z,995.41
2022-08-21T02:05:25.912Z,995.38
2022-08-21T02:06:25.902Z,995.37
2022-08-21T02:07:25.867Z,995.33
2022-08-21T02:08:25.843Z,995.36
2022-08-21T02:09:25.819Z,995.30
2022-08-21T02:10:25.798Z,995.27
2022-08-21T02:11:25.786Z,995.27
2022-08-21T02:12:25.771Z,995.25
2022-08-21T02:13:25.741Z,995.22
2022-08-21T02:14:31.929Z,995.23
2022-08-21T02:15:25.689Z,995.22
2022-08-21T02:16:25.666Z,995.23
2022-08-21T02:17:25.644Z,995.23
2022-08-21T02:18:25.623Z,995.24
2022-08-21T02:19:25.622Z,995.21
2022-08-21T02:20:25.579Z,995.19
2022-08-21T02:21:25.563Z,995.16
2022-08-21T02:22:25.539Z,995.21
2022-08-21T02:23:27.439Z,995.19
2022-08-21T02:24:25.495Z,995.17
2022-08-21T02:25:25.468Z,995.17
2022-08-21T02:26:25.449Z,995.19
2022-08-21T02:27:26.639Z,995.16
2022-08-21T02:28:25.404Z,995.16
2022-08-21T02:29:25.439Z,995.17
2022-08-21T02:30:25.360Z,995.13
2022-08-21T02:31:25.336Z,995.15
2022-08-21T02:32:25.319Z,995.14
2022-08-21T02:33:25.297Z,995.17
2022-08-21T02:34:29.384Z,995.16
2022-08-21T02:35:25.255Z,995.17
2022-08-21T02:36:25.226Z,995.14
2022-08-21T02:37:25.216Z,995.16
2022-08-21T02:38:25.200Z,995.13
2022-08-21T02:39:26.918Z,995.15
2022-08-21T02:40:25.143Z,995.15
2022-08-21T02:41:25.136Z,995.17
2022-08-21T02:42:25.095Z,995.14
2022-08-21T02:43:25.075Z,995.15
2022-08-21T02:44:30.104Z,995.14
2022-08-21T02:45:25.035Z,995.14
2022-08-21T02:46:25.007Z,995.14
2022-08-21T02:47:24.997Z,995.14
2022-08-21T02:48:24.965Z,995.11
2022-08-21T02:49:25.017Z,995.12
2022-08-21T02:50:24.922Z,995.09
2022-08-21T02:51:24.903Z,995.09
2022-08-21T02:52:24.876Z,995.10
2022-08-21T02:53:24.865Z,995.09
2022-08-21T02:54:24.830Z,995.10
2022-08-21T02:55:24.814Z,995.07
2022-08-21T02:56:24.793Z,995.07
2022-08-21T02:57:24.768Z,995.07
2022-08-21T02:58:24.754Z,995.08
2022-08-21T02:59:24.724Z,995.07
2022-08-21T03:00:24.697Z,995.01
2022-08-21T03:01:24.720Z,995.04
2022-08-21T03:02:26.656Z,995.05
2022-08-21T03:03:24.634Z,995.05
2022-08-21T03:04:24.613Z,995.03
2022-08-21T03:05:24.594Z,995.07
2022-08-21T03:06:24.569Z,995.03
2022-08-21T03:07:24.550Z,995.04
2022-08-21T03:08:26.511Z,995.03
2022-08-21T03:09:24.505Z,995.03
2022-08-21T03:10:24.481Z,995.05
2022-08-21T03:11:24.468Z,995.01
2022-08-21T03:12:24.436Z,995.01
2022-08-21T03:13:24.426Z,995.02
2022-08-21T03:14:24.398Z,995.05
2022-08-21T03:15:24.372Z,995.05
2022-08-21T03:16:24.350Z,995.08
2022-08-21T03:17:29.794Z,995.06
2022-08-21T03:18:24.306Z,995.05
2022-08-21T03:19:24.285Z,995.07
2022-08-21T03:20:24.262Z,995.11
2022-08-21T03:21:24.238Z,995.09
2022-08-21T03:22:24.218Z,995.09
2022-08-21T03:23:24.203Z,995.09
2022-08-21T03:24:24.172Z,995.10
2022-08-21T03:25:40.068Z,995.08
2022-08-21T03:26:24.148Z,995.10
2022-08-21T03:27:24.110Z,995.09
2022-08-21T03:28:24.084Z,995.10
2022-08-21T03:29:24.059Z,995.10
2022-08-21T03:30:24.041Z,995.10
2022-08-21T03:31:24.020Z,995.16
2022-08-21T03:32:23.994Z,995.16
2022-08-21T03:33:23.973Z,995.11
2022-08-21T03:34:23.951Z,995.11
2022-08-21T03:35:23.929Z,995.14
2022-08-21T03:36:23.909Z,995.15
2022-08-21T03:37:23.890Z,995.17
2022-08-21T03:38:26.647Z,995.17
2022-08-21T03:39:23.841Z,995.20
2022-08-21T03:40:23.821Z,995.19
2022-08-21T03:41:23.815Z,995.21
2022-08-21T03:42:23.773Z,995.21
2022-08-21T03:43:23.749Z,995.22
2022-08-21T03:44:23.731Z,995.23
2022-08-21T03:45:23.707Z,995.24
2022-08-21T03:46:23.692Z,995.21
2022-08-21T03:47:23.666Z,995.23
2022-08-21T03:48:23.642Z,995.21
2022-08-21T03:49:23.632Z,995.23
2022-08-21T03:50:23.601Z,995.22
2022-08-21T03:51:23.572Z,995.20
2022-08-21T03:52:23.559Z,995.22
2022-08-21T03:53:23.540Z,995.22
2022-08-21T03:54:23.514Z,995.23
2022-08-21T03:55:23.491Z,995.22
2022-08-21T03:56:23.465Z,995.24
2022-08-21T03:57:23.454Z,995.25
2022-08-21T03:58:23.418Z,995.26
2022-08-21T03:59:23.395Z,995.29
2022-08-21T04:00:23.375Z,995.28
2022-08-21T04:01:23.387Z,995.28
2022-08-21T04:02:23.333Z,995.27
2022-08-21T04:03:23.308Z,995.30
2022-08-21T04:04:23.283Z,995.31
2022-08-21T04:05:23.262Z,995.32
2022-08-21T04:06:23.244Z,995.37
2022-08-21T04:07:23.216Z,995.33
2022-08-21T04:08:23.203Z,995.33
2022-08-21T04:09:23.180Z,995.37
2022-08-21T04:10:23.164Z,995.38
2022-08-21T04:11:23.133Z,995.37
2022-08-21T04:12:23.105Z,995.38
2022-08-21T04:13:23.090Z,995.39
2022-08-21T04:14:23.078Z,995.42
2022-08-21T04:15:23.045Z,995.41
2022-08-21T04:16:23.021Z,995.43
2022-08-21T04:17:22.999Z,995.43
2022-08-21T04:18:22.971Z,995.46
2022-08-21T04:19:22.961Z,995.49
2022-08-21T04:20:22.936Z,995.50
2022-08-21T04:21:24.236Z,995.50
2022-08-21T04:22:22.886Z,995.52
2022-08-21T04:23:24.433Z,995.52
2022-08-21T04:24:22.838Z,995.51
2022-08-21T04:25:22.817Z,995.54
2022-08-21T04:26:22.802Z,995.49
2022-08-21T04:27:22.774Z,995.54
2022-08-21T04:28:23.394Z,995.55
2022-08-21T04:29:22.732Z,995.57
2022-08-21T04:30:28.064Z,995.57
2022-08-21T04:31:22.704Z,995.57
2022-08-21T04:32:22.668Z,995.59
2022-08-21T04:33:22.645Z,995.60
2022-08-21T04:34:22.634Z,995.58
2022-08-21T04:35:22.608Z,995.57
2022-08-21T04:36:22.986Z,995.62
2022-08-21T04:37:22.554Z,995.63
2022-08-21T04:38:22.534Z,995.59
2022-08-21T04:39:22.507Z,995.63
2022-08-21T04:40:22.592Z,995.67
2022-08-21T04:41:28.061Z,995.66
2022-08-21T04:42:22.441Z,995.64
2022-08-21T04:43:22.437Z,995.62
2022-08-21T04:44:22.405Z,995.67
2022-08-21T04:45:22.376Z,995.67
2022-08-21T04:46:22.360Z,995.71
2022-08-21T04:47:22.334Z,995.74
2022-08-21T04:48:22.305Z,995.74
2022-08-21T04:49:22.286Z,995.71
2022-08-21T04:50:22.260Z,995.73
2022-08-21T04:51:22.244Z,995.72
2022-08-21T04:52:22.216Z,995.71
2022-08-21T04:53:22.205Z,995.79
2022-08-21T04:54:22.175Z,995.76
2022-08-21T04:55:22.171Z,995.78
2022-08-21T04:56:22.130Z,995.77
2022-08-21T04:57:22.103Z,995.78
2022-08-21T04:58:22.086Z,995.81
2022-08-21T04:59:22.070Z,995.82
2022-08-21T05:00:22.037Z,995.83
2022-08-21T05:01:22.087Z,995.84
2022-08-21T05:02:21.997Z,995.84
2022-08-21T05:03:21.971Z,995.84
2022-08-21T05:04:21.956Z,995.87
2022-08-21T05:05:21.930Z,995.87
2022-08-21T05:06:21.907Z,995.84
2022-08-21T05:07:42.483Z,995.89
2022-08-21T05:08:21.869Z,995.89
2022-08-21T05:09:21.842Z,995.87
2022-08-21T05:10:21.908Z,995.89
2022-08-21T05:11:21.799Z,995.89
2022-08-21T05:12:21.775Z,995.85
2022-08-21T05:13:21.754Z,995.89
2022-08-21T05:14:21.735Z,995.88
2022-08-21T05:15:21.710Z,995.88
2022-08-21T05:16:30.151Z,995.84
2022-08-21T05:17:21.663Z,995.84
2022-08-21T05:18:21.643Z,995.83
2022-08-21T05:19:21.621Z,995.86
2022-08-21T05:20:21.614Z,995.91
2022-08-21T05:21:21.576Z,995.92
2022-08-21T05:22:21.555Z,995.91
2022-08-21T05:23:21.531Z,995.93
2022-08-21T05:24:21.516Z,995.94
2022-08-21T05:25:22.267Z,995.95
2022-08-21T05:26:21.467Z,995.98
2022-08-21T05:27:21.451Z,995.98
2022-08-21T05:28:21.427Z,995.99
2022-08-21T05:29:21.404Z,996.00
2022-08-21T05:30:21.440Z,996.00
2022-08-21T05:31:21.362Z,996.00
2022-08-21T05:32:21.333Z,995.99
2022-08-21T05:33:21.312Z,995.96
2022-08-21T05:34:21.299Z,995.92
2022-08-21T05:35:21.276Z,995.92
2022-08-21T05:36:21.248Z,995.95
2022-08-21T05:37:21.229Z,995.95
2022-08-21T05:38:21.223Z,995.96
2022-08-21T05:39:21.189Z,995.96
2022-08-21T05:40:23.372Z,995.99
2022-08-21T05:41:21.149Z,995.94
2022-08-21T05:42:21.123Z,995.94
2022-08-21T05:43:21.097Z,995.94
2022-08-21T05:44:21.082Z,995.97
2022-08-21T05:45:34.661Z,995.98
2022-08-21T05:46:21.039Z,995.97
2022-08-21T05:47:21.014Z,995.97
2022-08-21T05:48:20.989Z,995.97
2022-08-21T05:49:20.977Z,995.96
2022-08-21T05:50:20.947Z,995.98
2022-08-21T05:51:20.941Z,995.93
2022-08-21T05:52:20.907Z,995.92
2022-08-21T05:53:20.885Z,995.89
2022-08-21T05:54:20.867Z,995.90
2022-08-21T05:55:20.844Z,995.92
2022-08-21T05:56:20.825Z,995.96
2022-08-21T05:57:20.805Z,995.92
2022-08-21T05:58:20.783Z,995.94
2022-08-21T05:59:20.762Z,995.93
2022-08-21T06:00:20.740Z,995.92
2022-08-21T06:01:20.754Z,995.92
2022-08-21T06:02:20.703Z,995.92
2022-08-21T06:03:20.673Z,995.96
2022-08-21T06:04:20.659Z,995.91
2022-08-21T06:05:24.985Z,995.89
2022-08-21T06:06:20.612Z,995.89
2022-08-21T06:07:20.596Z,995.87
2022-08-21T06:08:20.578Z,995.88
2022-08-21T06:09:20.550Z,995.92
2022-08-21T06:10:20.545Z,995.88
2022-08-21T06:11:20.917Z,995.89
2022-08-21T06:12:20.492Z,995.88
2022-08-21T06:13:20.465Z,995.91
2022-08-21T06:14:20.460Z,995.91
2022-08-21T06:15:20.452Z,995.91
2022-08-21T06:16:20.411Z,995.92
2022-08-21T06:17:20.389Z,995.90
2022-08-21T06:18:20.370Z,995.92
2022-08-21T06:19:20.360Z,995.93
2022-08-21T06:20:20.330Z,995.89
2022-08-21T06:21:20.316Z,995.88
2022-08-21T06:22:20.289Z,995.93
2022-08-21T06:23:20.269Z,995.94
2022-08-21T06:24:20.250Z,995.91
2022-08-21T06:25:20.232Z,995.93
2022-08-21T06:26:20.212Z,995.97
2022-08-21T06:27:23.504Z,995.94
2022-08-21T06:28:20.178Z,996.01
2022-08-21T06:29:20.151Z,996.01
2022-08-21T06:30:20.131Z,996.01
2022-08-21T06:31:20.126Z,996.06
2022-08-21T06:32:20.094Z,996.05
2022-08-21T06:33:20.068Z,996.08
2022-08-21T06:34:20.057Z,996.07
2022-08-21T06:35:20.037Z,996.12
2022-08-21T06:36:20.019Z,996.05
2022-08-21T06:37:20.081Z,996.08
2022-08-21T06:38:19.977Z,996.05
2022-08-21T06:39:24.991Z,996.08
2022-08-21T06:40:20.058Z,996.08
2022-08-21T06:41:23.913Z,996.07
2022-08-21T06:42:19.898Z,996.06
2022-08-21T06:43:19.893Z,996.08
2022-08-21T06:44:19.863Z,996.07
2022-08-21T06:45:19.846Z,996.07
2022-08-21T06:46:19.824Z,996.07
2022-08-21T06:47:19.804Z,996.03
2022-08-21T06:48:19.783Z,996.07
2022-08-21T06:49:21.559Z,996.07
2022-08-21T06:50:19.748Z,996.04
2022-08-21T06:51:19.727Z,996.06
2022-08-21T06:52:19.709Z,996.03
2022-08-21T06:53:19.692Z,996.01
2022-08-21T06:54:19.706Z,996.02
2022-08-21T06:55:22.261Z,996.00
2022-08-21T06:56:19.638Z,995.98
2022-08-21T06:57:19.619Z,996.01
2022-08-21T06:58:19.600Z,996.01
2022-08-21T06:59:19.585Z,996.02
2022-08-21T07:00:19.563Z,996.04
2022-08-21T07:01:19.584Z,996.02
2022-08-21T07:02:19.525Z,996.02
2022-08-21T07:03:19.515Z,996.06
2022-08-21T07:04:19.495Z,996.03
2022-08-21T07:05:19.479Z,996.03
2022-08-21T07:06:19.454Z,996.05
2022-08-21T07:07:19.441Z,996.05
2022-08-21T07:08:19.423Z,996.05
2022-08-21T07:09:23.953Z,996.10
2022-08-21T07:10:22.498Z,996.07
2022-08-21T07:11:19.386Z,996.09
2022-08-21T07:12:19.351Z,996.08
2022-08-21T07:13:19.331Z,996.09
2022-08-21T07:14:20.288Z,996.08
2022-08-21T07:15:19.303Z,996.08
2022-08-21T07:16:19.284Z,996.08
2022-08-21T07:17:19.268Z,996.11
2022-08-21T07:18:19.250Z,996.10
2022-08-21T07:19:19.234Z,996.10
2022-08-21T07:20:19.218Z,996.06
2022-08-21T07:21:23.891Z,996.10
2022-08-21T07:22:19.182Z,996.11
2022-08-21T07:23:19.170Z,996.14
2022-08-21T07:24:19.182Z,996.13
2022-08-21T07:25:19.136Z,996.10
2022-08-21T07:26:19.120Z,996.11
2022-08-21T07:27:19.103Z,996.07
2022-08-21T07:28:19.101Z,996.08
2022-08-21T07:29:19.080Z,996.03
2022-08-21T07:30:19.062Z,996.08
2022-08-21T07:31:19.047Z,996.05
2022-08-21T07:32:21.402Z,996.05
2022-08-21T07:33:19.026Z,996.07
2022-08-21T07:34:19.004Z,996.04
2022-08-21T07:35:19.022Z,996.00
2022-08-21T07:36:18.977Z,996.06
2022-08-21T07:37:18.964Z,996.01
2022-08-21T07:38:18.962Z,996.00
2022-08-21T07:39:18.934Z,996.01
2022-08-21T07:40:18.998Z,996.01
2022-08-21T07:41:18.906Z,996.01
2022-08-21T07:42:18.902Z,996.03
2022-08-21T07:43:18.899Z,996.04
2022-08-21T07:44:18.877Z,996.01
2022-08-21T07:45:18.854Z,996.02
2022-08-21T07:46:18.843Z,995.97
2022-08-21T07:47:41.334Z,996.01
2022-08-21T07:48:18.809Z,995.99
2022-08-21T07:49:18.803Z,995.96
2022-08-21T07:50:18.789Z,995.98
2022-08-21T07:51:18.773Z,995.98
2022-08-21T07:52:18.759Z,995.95
2022-08-21T07:53:18.746Z,995.95
2022-08-21T07:54:18.742Z,995.96
2022-08-21T07:55:18.727Z,995.94
2022-08-21T07:56:18.711Z,995.97
2022-08-21T07:57:18.792Z,995.97
2022-08-21T07:58:18.683Z,995.95
2022-08-21T07:59:18.673Z,995.99
2022-08-21T08:00:18.661Z,995.97
2022-08-21T08:01:18.706Z,996.01
2022-08-21T08:02:18.636Z,996.04
2022-08-21T08:03:28.360Z,996.05
2022-08-21T08:04:20.419Z,996.05
2022-08-21T08:05:18.608Z,996.04
2022-08-21T08:06:18.591Z,996.00
2022-08-21T08:07:18.596Z,996.03
2022-08-21T08:08:18.563Z,996.02
2022-08-21T08:09:18.552Z,996.00
2022-08-21T08:10:18.541Z,996.02
2022-08-21T08:11:18.530Z,996.02
2022-08-21T08:12:18.516Z,996.01
2022-08-21T08:13:18.513Z,996.01
2022-08-21T08:14:18.519Z,996.00
2022-08-21T08:15:18.482Z,996.01
2022-08-21T08:16:18.474Z,996.02
2022-08-21T08:17:18.460Z,996.00
2022-08-21T08:18:18.447Z,995.99
2022-08-21T08:19:18.436Z,995.98
2022-08-21T08:20:18.429Z,995.97
2022-08-21T08:21:18.445Z,995.96
2022-08-21T08:22:18.409Z,995.97
2022-08-21T08:23:18.398Z,995.93
2022-08-21T08:24:19.404Z,995.93
2022-08-21T08:25:18.372Z,995.92
2022-08-21T08:26:18.364Z,995.88
2022-08-21T08:27:18.352Z,995.90
2022-08-21T08:28:18.339Z,995.93
2022-08-21T08:29:18.340Z,995.91
2022-08-21T08:30:18.319Z,995.85
2022-08-21T08:31:18.308Z,995.87
2022-08-21T08:32:18.297Z,995.87
2022-08-21T08:33:18.293Z,995.86
2022-08-21T08:34:23.490Z,995.85
2022-08-21T08:35:18.265Z,995.84
2022-08-21T08:36:18.254Z,995.85
2022-08-21T08:37:18.264Z,995.86
2022-08-21T08:38:18.236Z,995.81
2022-08-21T08:39:26.507Z,995.85
2022-08-21T08:40:18.260Z,995.80
2022-08-21T08:41:18.198Z,995.82
2022-08-21T08:42:32.943Z,995.80
2022-08-21T08:43:18.185Z,995.80
2022-08-21T08:44:18.179Z,995.76
2022-08-21T08:45:18.163Z,995.76
2022-08-21T08:46:18.152Z,995.79
2022-08-21T08:47:18.141Z,995.77
2022-08-21T08:48:18.143Z,995.77
2022-08-21T08:49:18.119Z,995.78
2022-08-21T08:50:18.207Z,995.76
2022-08-21T08:51:18.167Z,995.75
2022-08-21T08:52:18.090Z,995.73
2022-08-21T08:53:18.085Z,995.68
2022-08-21T08:54:18.071Z,995.68
2022-08-21T08:55:18.062Z,995.72
2022-08-21T08:56:18.049Z,995.68
2022-08-21T08:57:18.039Z,995.68
2022-08-21T08:58:18.027Z,995.71
2022-08-21T08:59:18.015Z,995.70
2022-08-21T09:00:18.057Z,995.71
2022-08-21T09:01:18.099Z,995.70
2022-08-21T09:02:17.992Z,995.69
2022-08-21T09:03:17.978Z,995.66
2022-08-21T09:04:17.965Z,995.67
2022-08-21T09:05:17.956Z,995.66
2022-08-21T09:06:17.951Z,995.65
2022-08-21T09:07:17.935Z,995.69
2022-08-21T09:08:19.001Z,995.65
2022-08-21T09:09:17.923Z,995.63
2022-08-21T09:10:17.990Z,995.62
2022-08-21T09:11:17.903Z,995.61
2022-08-21T09:12:17.893Z,995.61
2022-08-21T09:13:17.882Z,995.53
2022-08-21T09:14:17.870Z,995.52
2022-08-21T09:15:17.860Z,995.56
2022-08-21T09:16:17.851Z,995.55
2022-08-21T09:17:17.837Z,995.52
2022-08-21T09:18:17.852Z,995.57
2022-08-21T09:19:17.828Z,995.55
2022-08-21T09:20:17.830Z,995.51
2022-08-21T09:21:17.808Z,995.56
2022-08-21T09:22:17.823Z,995.55
2022-08-21T09:23:17.783Z,995.55
2022-08-21T09:24:17.801Z,995.52
2022-08-21T09:25:17.763Z,995.53
2022-08-21T09:26:17.752Z,995.53
2022-08-21T09:27:17.745Z,995.53
2022-08-21T09:28:17.729Z,995.51
2022-08-21T09:29:17.715Z,995.51
2022-08-21T09:30:17.714Z,995.52
2022-08-21T09:31:17.703Z,995.49
2022-08-21T09:32:18.733Z,995.50
2022-08-21T09:33:17.679Z,995.50
2022-08-21T09:34:17.672Z,995.49
2022-08-21T09:35:17.669Z,995.45
2022-08-21T09:36:17.647Z,995.46
2022-08-21T09:37:17.642Z,995.51
2022-08-21T09:38:17.627Z,995.43
2022-08-21T09:39:17.615Z,995.45
2022-08-21T09:40:17.746Z,995.44
2022-08-21T09:41:17.601Z,995.47
2022-08-21T09:42:17.588Z,995.51
2022-08-21T09:43:17.580Z,995.46
2022-08-21T09:44:17.576Z,995.49
2022-08-21T09:45:17.554Z,995.50
2022-08-21T09:46:17.554Z,995.49
2022-08-21T09:47:17.536Z,995.50
2022-08-21T09:48:17.529Z,995.53
2022-08-21T09:49:17.527Z,995.52
2022-08-21T09:50:17.511Z,995.47
2022-08-21T09:51:17.503Z,995.47
2022-08-21T09:52:17.499Z,995.46
2022-08-21T09:53:17.484Z,995.47
2022-08-21T09:54:17.466Z,995.46
2022-08-21T09:55:17.463Z,995.48
2022-08-21T09:56:17.462Z,995.48
2022-08-21T09:57:17.441Z,995.53
2022-08-21T09:58:17.433Z,995.51
2022-08-21T09:59:17.420Z,995.49
2022-08-21T10:00:17.410Z,995.47
2022-08-21T10:01:17.543Z,995.46
2022-08-21T10:02:17.396Z,995.48
2022-08-21T10:03:17.386Z,995.48
2022-08-21T10:04:17.388Z,995.47
2022-08-21T10:05:17.394Z,995.42
2022-08-21T10:06:17.358Z,995.45
2022-08-21T10:07:17.356Z,995.47
2022-08-21T10:08:17.347Z,995.44
2022-08-21T10:09:21.125Z,995.44
2022-08-21T10:10:17.322Z,995.40
2022-08-21T10:11:17.345Z,995.40
2022-08-21T10:12:17.309Z,995.42
2022-08-21T10:13:17.295Z,995.41
2022-08-21T10:14:17.297Z,995.44
2022-08-21T10:15:17.277Z,995.42
2022-08-21T10:16:17.268Z,995.43
2022-08-21T10:17:17.262Z,995.45
2022-08-21T10:18:17.285Z,995.37
2022-08-21T10:19:17.250Z,995.35
2022-08-21T10:20:17.233Z,995.38
2022-08-21T10:21:17.231Z,995.30
2022-08-21T10:22:17.220Z,995.31
2022-08-21T10:23:17.211Z,995.29
2022-08-21T10:24:23.631Z,995.30
2022-08-21T10:25:17.199Z,995.28
2022-08-21T10:26:17.190Z,995.27
2022-08-21T10:27:17.182Z,995.26
2022-08-21T10:28:17.169Z,995.26
2022-08-21T10:29:17.163Z,995.28
2022-08-21T10:30:17.164Z,995.26
2022-08-21T10:31:17.154Z,995.26
2022-08-21T10:32:25.814Z,995.26
2022-08-21T10:33:17.128Z,995.25
2022-08-21T10:34:17.119Z,995.23
2022-08-21T10:35:17.126Z,995.26
2022-08-21T10:36:17.101Z,995.24
2022-08-21T10:37:17.102Z,995.26
2022-08-21T10:38:39.254Z,995.25
2022-08-21T10:39:26.475Z,995.22
2022-08-21T10:40:17.148Z,995.28
2022-08-21T10:41:17.056Z,995.28
2022-08-21T10:42:17.049Z,995.23
2022-08-21T10:43:17.050Z,995.27
2022-08-21T10:44:17.032Z,995.26
2022-08-21T10:45:17.023Z,995.28
2022-08-21T10:46:17.015Z,995.23
2022-08-21T10:47:17.009Z,995.21
2022-08-21T10:48:17.003Z,995.25
2022-08-21T10:49:16.986Z,995.25
2022-08-21T10:50:16.977Z,995.25
2022-08-21T10:51:16.980Z,995.22
2022-08-21T10:52:16.964Z,995.23
2022-08-21T10:53:16.961Z,995.24
2022-08-21T10:54:21.467Z,995.25
2022-08-21T10:55:16.941Z,995.17
2022-08-21T10:56:16.941Z,995.17
2022-08-21T10:57:16.929Z,995.20
2022-08-21T10:58:16.925Z,995.14
2022-08-21T10:59:16.919Z,995.13
2022-08-21T11:00:16.908Z,995.11
2022-08-21T11:01:16.954Z,995.17
2022-08-21T11:02:16.894Z,995.13
2022-08-21T11:03:16.890Z,995.07
2022-08-21T11:04:16.877Z,995.11
2022-08-21T11:05:16.870Z,995.09
2022-08-21T11:06:17.123Z,995.05
2022-08-21T11:07:17.655Z,995.03
2022-08-21T11:08:16.847Z,995.03
2022-08-21T11:09:16.852Z,995.05
2022-08-21T11:10:16.836Z,995.09
2022-08-21T11:11:21.608Z,995.07
2022-08-21T11:12:16.820Z,995.01
2022-08-21T11:13:16.816Z,994.97
2022-08-21T11:14:16.801Z,994.99
2022-08-21T11:15:29.514Z,994.96
2022-08-21T11:16:16.795Z,994.96
2022-08-21T11:17:21.415Z,995.01
2022-08-21T11:18:16.772Z,994.94
2022-08-21T11:19:16.766Z,994.93
2022-08-21T11:20:16.756Z,994.95
2022-08-21T11:21:16.756Z,994.96
2022-08-21T11:22:16.755Z,994.99
2022-08-21T11:23:16.735Z,995.02
2022-08-21T11:24:16.727Z,994.99
2022-08-21T11:25:16.719Z,994.94
2022-08-21T11:26:16.715Z,994.92
2022-08-21T11:27:16.709Z,994.91
2022-08-21T11:28:16.712Z,994.95
2022-08-21T11:29:16.694Z,994.95
2022-08-21T11:30:16.689Z,994.92
2022-08-21T11:31:16.703Z,994.87
2022-08-21T11:32:16.678Z,994.90
2022-08-21T11:33:16.679Z,994.84
2022-08-21T11:34:16.673Z,994.86
2022-08-21T11:35:16.663Z,994.82
2022-08-21T11:36:16.660Z,994.90
2022-08-21T11:37:16.657Z,994.90
2022-08-21T11:38:16.664Z,994.89
2022-08-21T11:39:16.642Z,994.84
2022-08-21T11:40:16.706Z,994.84
2022-08-21T11:41:16.629Z,994.81
2022-08-21T11:42:16.638Z,994.81
2022-08-21T11:43:16.626Z,994.83
2022-08-21T11:44:16.619Z,994.81
2022-08-21T11:45:16.617Z,994.81
2022-08-21T11:46:16.612Z,994.83
2022-08-21T11:47:16.613Z,994.81
2022-08-21T11:48:16.600Z,994.89
2022-08-21T11:49:16.611Z,994.90
2022-08-21T11:50:34.871Z,994.80
2022-08-21T11:51:16.590Z,994.79
2022-08-21T11:52:16.577Z,994.82
2022-08-21T11:53:16.564Z,994.73
2022-08-21T11:54:16.569Z,994.74
2022-08-21T11:55:16.564Z,994.74
2022-08-21T11:56:16.557Z,994.74
2022-08-21T11:57:16.553Z,994.67
2022-08-21T11:58:16.553Z,994.72
2022-08-21T11:59:16.556Z,994.71
2022-08-21T12:00:16.539Z,994.71
2022-08-21T12:01:16.538Z,994.74
2022-08-21T12:02:16.619Z,994.75
2022-08-21T12:03:16.545Z,994.78
2022-08-21T12:04:16.547Z,994.76
2022-08-21T12:05:16.529Z,994.76
2022-08-21T12:06:24.061Z,994.72
2022-08-21T12:07:16.539Z,994.73
2022-08-21T12:08:16.524Z,994.73
2022-08-21T12:09:16.514Z,994.73
2022-08-21T12:10:16.507Z,994.68
2022-08-21T12:11:16.510Z,994.69
2022-08-21T12:12:16.500Z,994.70
2022-08-21T12:13:16.499Z,994.75
2022-08-21T12:14:16.508Z,994.66
2022-08-21T12:15:16.497Z,994.66
2022-08-21T12:16:16.492Z,994.66
2022-08-21T12:17:20.221Z,994.67
2022-08-21T12:18:16.508Z,994.65
2022-08-21T12:19:16.486Z,994.63
2022-08-21T12:20:16.483Z,994.59
2022-08-21T12:21:16.480Z,994.57
2022-08-21T12:22:16.481Z,994.56
2022-08-21T12:23:16.479Z,994.58
2022-08-21T12:24:16.474Z,994.56
2022-08-21T12:25:20.955Z,994.52
2022-08-21T12:26:16.473Z,994.48
2022-08-21T12:27:16.471Z,994.52
2022-08-21T12:28:16.470Z,994.54
2022-08-21T12:29:16.468Z,994.54
2022-08-21T12:30:16.467Z,994.53
2022-08-21T12:31:16.465Z,994.60